This is the latest recevied weather packets stored in our database for station/object W1CAT. If no packets are shown the sender has not sent any weather packets the latest 10 day(s).
| Time | Temp. | Humidity | Pressure | Rain* | Wind** | Luminosity | Snow |
|---|---|---|---|---|---|---|---|
| 1777933448 | 13.33° C | 47% | - | 0 mm | - | - | - |
| 1777933146 | 12.78° C | 47% | - | 0 mm | - | - | - |
| 1777932842 | 12.22° C | 50% | - | 0 mm | - | - | - |
| 1777932539 | 12.22° C | 50% | - | 0 mm | - | - | - |
| 1777932236 | 12.22° C | 51% | - | 0 mm | - | - | - |
| 1777931933 | 12.22° C | 50% | - | 0 mm | - | - | - |
| 1777931629 | 11.67° C | 52% | - | 0 mm | - | - | - |
| 1777931326 | 11.11° C | 52% | - | 0 mm | - | - | - |
| 1777931023 | 11.11° C | 54% | - | 0 mm | - | - | - |
| 1777930719 | 11.11° C | 53% | - | 0 mm | - | - | - |
| 1777930415 | 12.22° C | 53% | - | 0 mm | - | - | - |
| 1777930113 | 13.89° C | 45% | - | 0 mm | - | - | - |
| 1777929809 | 13.89° C | 45% | - | 0 mm | - | - | - |
| 1777929507 | 13.89° C | 45% | - | 0 mm | - | - | - |
| 1777929208 | 13.89° C | 46% | - | 0 mm | - | - | - |
| 1777928905 | 12.78° C | 48% | - | 0 mm | - | - | - |
| 1777928602 | 12.78° C | 50% | - | 0 mm | - | - | - |
| 1777928300 | 13.33° C | 51% | - | 0 mm | - | - | - |
| 1777927997 | 12.22° C | 53% | - | 0 mm | - | - | - |
| 1777927695 | 11.67° C | 55% | - | 0 mm | - | - | - |
| 1777927393 | 11.11° C | 58% | - | 0 mm | - | - | - |
| 1777927093 | 10.56° C | 56% | - | 0 mm | - | - | - |
| 1777926789 | 10.56° C | 54% | - | 0 mm | - | - | - |
| 1777926484 | 10.56° C | 58% | - | 0 mm | - | - | - |
| 1777926182 | 11.11° C | 57% | - | 0 mm | - | - | - |
* Rain latest hour (hover to see other rain measurements)
** Current wind speed in m/s (hover to see current wind gust speed)